Dauphin Airport, Manitoba

Past 24 Hour Conditions

This table is a summary of hourly weather conditions for the past 24 hours. This summary includes the following parameters: temperature, humidity, dew point, wind speed and direction, air pressure, visibility and/or wind chill and humidex.
Date / Time
(CDT)
Conditions Temp (°F) Humidity (%) Dew Point (°F) Wind (mph) Pressure (inches) Vis (mi) Humidex
20 August 2014
3:00 Clear 59 94 58 W 2 29.7 8 *
2:00 Clear 62 90 59 SSE 6 29.7 9 *
1:00 Clear 61 92 59 SE 6 29.7 8 *
00:00 Clear 62 90 59 SSE 3 29.7 8 *
19 August 2014
23:00 Clear 66 81 60 SE 3 29.7 9 *
22:00 Clear 67 86 62 SE 7 29.7 9 *
21:00 Clear 69 82 64 SSE 7 29.7 8 79
20:00 Sunny 72 80 66 SE 8 29.7 8 83
19:00 Sunny 76 70 66 SE 7 29.7 8 88
18:00 Sunny 80 63 67 SE 8 29.7 8 93
17:00 Sunny 82   55 64 SE 8 29.7 9 92
16:00 Sunny 82   57 65 SE 6 29.7 7 93
15:00 Haze 81 54 63 SSE 3 29.7 6 91
14:00 Haze 81 46 59 E 3 29.7 5 88
13:00 Sunny 79 53 61 SSW 3 29.7 7 88
12:00 Sunny 77 64 64 WSW 5 29.7 9 88
11:00 Sunny 75 75 67 W 6 29.7 10 88
10:00 Sunny 71 85 66 W 6 29.7 10 82
9:00 Sunny 66 92 64 W 6 29.7 9 *
8:00 Mist 59 98 59 WSW 3 29.7 6 *
7:00 Mist 57   97 56 WSW 6 29.7 5 *
6:00 Mist 57   97 56 WSW 7 29.7 5 *
5:00 Mist 57   97 56 WSW 7 29.7 6 *
4:00 Clear 59 96 58 WSW 6 29.7 8 *
3:00 Clear 59 96 58 WSW 8 29.7 8 *
N/A
Not available
 ↑ 
Highest temperature
 ↓ 
Lowest temperature
*
Value not significant.

If you require additional historical weather information, please visit Climate Data Online.